Time;durP1;ratioP1;P1;durP2;ratioP2;P2;SDS_P1;SDS_P2;PMS_P1;PMS_P2;Temp;Humidity;BMP_temperature;BMP_pressure;BME280_temperature;BME280_humidity;BME280_pressure;Samples;Min_cycle;Max_cycle;Signal;HPM_P1;HPM_P2
2021/12/14 00:01:59;;;;;;;62.15;36.33;;;;;;;2.94;100.00;100697.09;5059822;28;20020;-80
2021/12/14 00:04:32;;;;;;;64.20;38.50;;;;;;;2.90;100.00;100695.38;5060848;28;20037;-81
2021/12/14 00:07:02;;;;;;;58.08;34.25;;;;;;;2.93;100.00;100697.97;5058621;28;20021;-81
2021/12/14 00:09:34;;;;;;;52.05;31.63;;;;;;;2.78;100.00;100677.34;5058487;28;20031;-80
2021/12/14 00:12:40;;;;;;;59.85;33.58;;;;;;;2.84;100.00;100685.09;5060632;28;20063;-80
2021/12/14 00:15:12;;;;;;;54.58;31.95;;;;;;;2.85;100.00;100684.22;5045846;28;20067;-81
2021/12/14 00:17:47;;;;;;;58.20;32.58;;;;;;;2.93;100.00;100691.09;5062003;28;20067;-80
2021/12/14 00:20:13;;;;;;;56.22;32.95;;;;;;;2.97;100.00;100704.84;5061106;28;20037;-80
2021/12/14 00:25:29;;;;;;;55.35;32.42;;;;;;;2.91;100.00;100702.28;5061933;28;20090;-80
2021/12/14 00:27:58;;;;;;;54.80;33.28;;;;;;;2.92;100.00;100698.84;5061227;28;20017;-81
2021/12/14 00:30:23;;;;;;;60.30;35.47;;;;;;;2.78;100.00;100675.63;5056948;28;20037;-79
2021/12/14 00:32:49;;;;;;;79.53;40.33;;;;;;;2.95;100.00;100699.69;5052455;28;20132;-80
2021/12/14 00:35:15;;;;;;;73.32;39.53;;;;;;;2.95;100.00;100689.41;5051861;28;20443;-80
2021/12/14 00:37:46;;;;;;;65.53;37.15;;;;;;;2.91;100.00;100686.84;5056940;28;20032;-80
2021/12/14 00:40:37;;;;;;;69.25;36.90;;;;;;;2.97;100.00;100697.97;5058137;28;20043;-80
2021/12/14 00:43:03;;;;;;;;;;;;;;;3.00;100.00;100694.56;5030888;28;20025;-80
2021/12/14 00:45:31;;;;;;;70.13;37.40;;;;;;;2.80;100.00;100660.22;5030128;28;20364;-80
2021/12/14 00:47:58;;;;;;;76.45;41.25;;;;;;;2.97;100.00;100697.13;5030722;28;20033;-80
2021/12/14 00:50:25;;;;;;;90.05;44.38;;;;;;;2.87;100.00;100673.09;5030585;28;20072;-80
2021/12/14 00:52:51;;;;;;;66.60;38.38;;;;;;;2.91;100.00;100689.41;5008719;28;20040;-80
2021/12/14 00:55:25;;;;;;;67.07;39.33;;;;;;;2.90;100.00;100688.53;5010168;28;20604;-80
2021/12/14 00:57:52;;;;;;;67.18;38.75;;;;;;;2.98;100.00;100699.69;4994059;28;20397;-79
2021/12/14 01:00:22;;;;;;;65.22;39.08;;;;;;;3.04;100.00;100711.72;5010326;28;20444;-80
2021/12/14 01:02:47;;;;;;;84.32;49.05;;;;;;;3.03;100.00;100716.84;5010669;28;20034;-81
2021/12/14 01:05:18;;;;;;;87.53;51.15;;;;;;;2.84;100.00;100677.38;5007633;28;20026;-80
2021/12/14 01:07:43;;;;;;;78.63;46.17;;;;;;;2.94;100.00;100699.69;5010641;28;20041;-80
2021/12/14 01:10:18;;;;;;;78.40;46.92;;;;;;;2.90;100.00;100696.25;5010305;28;20481;-81
2021/12/14 01:12:52;;;;;;;75.50;44.97;;;;;;;2.89;100.00;100685.97;5010695;28;20069;-81
2021/12/14 01:15:50;;;;;;;78.18;47.55;;;;;;;3.02;100.00;100721.13;4993757;28;20385;-80
2021/12/14 01:21:41;;;;;;;76.03;41.53;;;;;;;2.89;100.00;100697.09;5056198;28;20047;-81
2021/12/14 01:24:20;;;;;;;74.75;41.65;;;;;;;2.83;100.00;100685.97;5061384;28;20065;-80
2021/12/14 01:26:45;;;;;;;71.82;42.03;;;;;;;2.95;100.00;100710.00;5061795;28;20075;-80
2021/12/14 01:29:11;;;;;;;72.65;42.47;;;;;;;2.98;100.00;100712.56;5060616;28;20037;-80
2021/12/14 01:31:41;;;;;;;80.18;44.60;;;;;;;3.02;100.00;100712.56;5062458;28;20100;-80
2021/12/14 01:34:30;;;;;;;81.82;43.53;;;;;;;3.00;100.00;100721.16;5063771;28;20111;-80
2021/12/14 01:36:58;;;;;;;75.35;41.28;;;;;;;2.97;100.00;100709.97;5061755;28;20027;-80
2021/12/14 01:42:08;;;;;;;82.15;47.30;;;;;;;3.04;100.00;100710.88;5061552;28;20033;-82
2021/12/14 01:44:44;;;;;;;85.13;48.55;;;;;;;2.90;100.00;100678.22;5061269;28;20045;-79
2021/12/14 01:47:15;;;;;;;89.45;48.55;;;;;;;3.06;100.00;100702.28;5060571;28;20029;-80
2021/12/14 01:49:41;;;;;;;76.07;44.15;;;;;;;2.99;100.00;100697.97;5061729;28;20437;-80
2021/12/14 01:52:12;;;;;;;78.35;44.85;;;;;;;2.94;100.00;100686.81;5062631;28;20021;-81
2021/12/14 01:54:41;;;;;;;69.05;43.53;;;;;;;3.05;100.00;100700.56;5061684;28;20428;-80
2021/12/14 01:57:11;;;;;;;72.00;43.47;;;;;;;2.98;100.00;100685.97;5059276;28;20021;-79
2021/12/14 01:59:41;;;;;;;75.15;44.50;;;;;;;3.08;100.00;100698.00;5060727;28;20496;-80
2021/12/14 02:04:45;;;;;;;77.00;43.80;;;;;;;3.00;100.00;100689.41;5059864;28;20045;-80
2021/12/14 02:07:12;;;;;;;74.38;43.92;;;;;;;3.12;100.00;100709.13;5061055;28;20086;-81
2021/12/14 02:09:40;;;;;;;72.53;42.80;;;;;;;3.10;100.00;100708.28;5060208;28;20082;-80
2021/12/14 02:12:14;;;;;;;77.63;44.33;;;;;;;3.08;100.00;100699.72;5060241;28;20070;-81
2021/12/14 02:14:40;;;;;;;72.55;42.40;;;;;;;3.09;100.00;100698.84;5061503;28;20477;-81
2021/12/14 02:17:09;;;;;;;76.78;43.22;;;;;;;3.11;100.00;100700.56;5061376;28;20039;-80
2021/12/14 02:19:35;;;;;;;83.35;47.50;;;;;;;3.09;100.00;100696.28;5057802;28;20103;-80
2021/12/14 02:22:02;;;;;;;76.72;46.30;;;;;;;3.11;100.00;100699.69;5057972;28;20043;-80
2021/12/14 02:24:29;;;;;;;83.03;48.80;;;;;;;3.14;100.00;100689.41;5052529;28;20530;-80
2021/12/14 02:26:55;;;;;;;84.25;48.85;;;;;;;3.10;100.00;100679.97;5052343;28;20476;-80
2021/12/14 02:29:29;;;;;;;87.88;49.03;;;;;;;3.17;100.00;100682.56;5052247;28;20357;-80
2021/12/14 02:32:05;;;;;;;81.07;45.40;;;;;;;3.22;100.00;100691.13;5052384;28;20476;-80
2021/12/14 02:34:41;;;;;;;89.18;48.17;;;;;;;3.17;100.00;100698.00;5059789;28;20045;-80
2021/12/14 02:37:07;;;;;;;93.70;48.58;;;;;;;3.13;100.00;100687.69;5062886;28;20032;-80
2021/12/14 02:42:10;;;;;;;97.43;49.13;;;;;;;3.17;100.00;100692.84;5052513;28;20041;-80
2021/12/14 02:44:36;;;;;;;88.38;49.60;;;;;;;3.20;100.00;100699.69;5050892;28;20049;-80
2021/12/14 02:47:15;;;;;;;80.43;46.90;;;;;;;3.13;100.00;100687.69;5050875;28;20032;-81
2021/12/14 02:49:40;;;;;;;82.93;44.83;;;;;;;3.18;100.00;100689.41;5051067;28;20029;-79
2021/12/14 02:52:15;;;;;;;78.05;43.38;;;;;;;3.04;100.00;100661.97;5052008;28;20396;-81
2021/12/14 02:54:50;;;;;;;73.43;42.60;;;;;;;3.14;100.00;100685.13;5052510;28;20472;-79
2021/12/14 02:57:22;;;;;;;80.78;44.85;;;;;;;3.09;100.00;100679.13;5052003;28;20033;-81
2021/12/14 02:59:49;;;;;;;74.22;43.63;;;;;;;3.05;100.00;100672.25;5052258;28;20032;-80
2021/12/14 03:02:19;;;;;;;81.68;44.67;;;;;;;3.15;100.00;100680.81;5051373;28;20070;-79
2021/12/14 03:04:49;;;;;;;86.43;46.58;;;;;;;3.17;100.00;100684.28;5058211;28;20059;-80
2021/12/14 03:07:22;;;;;;;72.30;42.85;;;;;;;3.18;100.00;100678.25;5051511;28;20414;-80
2021/12/14 03:12:29;;;;;;;78.25;42.92;;;;;;;3.04;100.00;100667.13;5051690;28;20489;-80
2021/12/14 03:15:01;;;;;;;69.05;41.63;;;;;;;3.00;100.00;100661.94;5055490;28;20107;-81
2021/12/14 03:17:27;;;;;;;70.90;41.63;;;;;;;3.05;100.00;100671.41;5062843;28;20460;-80
2021/12/14 03:20:00;;;;;;;71.63;40.50;;;;;;;3.12;100.00;100681.69;5062265;28;20067;-81
2021/12/14 03:22:57;;;;;;;75.35;43.08;;;;;;;3.16;100.00;100682.53;5060939;28;20024;-80
2021/12/14 03:25:23;;;;;;;80.57;42.55;;;;;;;3.14;100.00;100682.53;5055313;28;20048;-79
2021/12/14 03:27:51;;;;;;;74.57;42.17;;;;;;;3.14;100.00;100673.97;5056791;28;20053;-80
2021/12/14 03:30:30;;;;;;;81.50;43.95;;;;;;;3.17;100.00;100685.13;5056059;28;20489;-79
2021/12/14 03:33:02;;;;;;;76.38;41.83;;;;;;;3.07;100.00;100667.09;5061093;28;20085;-81
2021/12/14 03:35:38;;;;;;;84.55;44.50;;;;;;;3.08;100.00;100661.97;5068837;28;20564;-80
2021/12/14 03:38:19;;;;;;;103.10;48.78;;;;;;;3.04;100.00;100660.25;5068978;28;20036;-78
2021/12/14 03:40:55;;;;;;;84.97;45.25;;;;;;;3.07;100.00;100659.38;5069166;28;20029;-80
2021/12/14 03:43:20;;;;;;;76.38;41.70;;;;;;;3.16;100.00;100674.81;5069055;28;20607;-80
2021/12/14 03:45:46;;;;;;;68.03;41.63;;;;;;;3.03;100.00;100642.22;5068943;28;20048;-80
2021/12/14 03:48:11;;;;;;;68.57;42.35;;;;;;;3.20;100.00;100680.00;5008989;28;20489;-79
2021/12/14 03:50:41;;;;;;;63.42;39.08;;;;;;;3.10;100.00;100659.38;5010816;28;20041;-80
2021/12/14 03:53:09;;;;;;;64.70;40.63;;;;;;;3.11;100.00;100659.38;5013023;28;20034;-80
2021/12/14 03:55:42;;;;;;;61.13;39.65;;;;;;;3.18;100.00;100668.81;5013260;28;20046;-79
2021/12/14 03:58:13;;;;;;;62.05;37.35;;;;;;;3.13;100.00;100654.25;4996642;28;20034;-80
2021/12/14 04:00:44;;;;;;;67.47;39.45;;;;;;;3.06;100.00;100650.78;5013457;28;20026;-80
2021/12/14 04:03:14;;;;;;;76.25;42.72;;;;;;;3.13;100.00;100662.81;5012846;28;20535;-80
2021/12/14 04:05:41;;;;;;;81.15;48.15;;;;;;;3.16;100.00;100669.66;5012948;28;20452;-80
2021/12/14 04:08:08;;;;;;;70.95;41.47;;;;;;;3.14;100.00;100658.53;5012598;28;20069;-80
2021/12/14 04:10:38;;;;;;;66.15;39.45;;;;;;;3.15;100.00;100643.06;4996572;28;20066;-80
2021/12/14 04:13:06;;;;;;;63.75;38.25;;;;;;;3.12;100.00;100649.94;5012783;28;20555;-80
2021/12/14 04:15:32;;;;;;;63.58;39.22;;;;;;;3.17;100.00;100654.22;5013018;28;20113;-80
2021/12/14 04:17:58;;;;;;;68.30;39.20;;;;;;;3.13;100.00;100643.94;5012856;28;20144;-80
2021/12/14 04:20:32;;;;;;;63.67;38.55;;;;;;;3.07;100.00;100633.63;5054489;28;20108;-80
2021/12/14 04:22:59;;;;;;;62.58;36.15;;;;;;;3.12;100.00;100644.78;5055048;28;20056;-80
2021/12/14 04:25:30;;;;;;;56.25;36.42;;;;;;;3.19;100.00;100662.78;5054485;28;20025;-80
2021/12/14 04:27:58;;;;;;;65.15;38.90;;;;;;;3.17;100.00;100658.53;5054726;28;20476;-83
2021/12/14 04:30:25;;;;;;;67.35;41.13;;;;;;;3.11;100.00;100636.19;5054499;28;20021;-80
2021/12/14 04:32:54;;;;;;;66.70;40.83;;;;;;;3.09;100.00;100635.34;5054641;28;20515;-80
2021/12/14 04:35:19;;;;;;;66.63;38.22;;;;;;;3.03;100.00;100635.34;5053324;28;20373;-80
2021/12/14 04:37:57;;;;;;;68.25;40.13;;;;;;;3.22;100.00;100661.94;5054686;28;20029;-80
2021/12/14 04:54:00;;;;;;;63.58;37.80;;;;;;;3.26;100.00;100658.53;5054591;28;20040;-81
2021/12/14 04:56:29;;;;;;;79.38;41.42;;;;;;;3.15;100.00;100631.91;5054103;28;20420;-81
2021/12/14 04:59:20;;;;;;;81.97;42.63;;;;;;;3.23;100.00;100646.50;5054146;28;20458;-81
2021/12/14 05:01:47;;;;;;;80.27;43.87;;;;;;;3.11;100.00;100628.47;5053056;28;20114;-80
2021/12/14 05:04:18;;;;;;;79.32;42.67;;;;;;;3.19;100.00;100634.47;5053767;28;20032;-80
2021/12/14 05:06:50;;;;;;;63.35;37.00;;;;;;;3.13;100.00;100623.34;5053845;28;20483;-80
2021/12/14 05:09:28;;;;;;;66.90;36.70;;;;;;;3.18;100.00;100637.91;5053913;28;20032;-81
2021/12/14 05:11:57;;;;;;;140.95;56.22;;;;;;;3.08;100.00;100620.78;5054075;28;20025;-80
2021/12/14 05:14:24;;;;;;;194.65;60.33;;;;;;;3.24;100.00;100650.81;5053740;28;20044;-80
2021/12/14 05:17:00;;;;;;;112.65;48.22;;;;;;;3.25;100.00;100654.25;5052799;28;20028;-80
2021/12/14 05:19:27;;;;;;;76.53;40.72;;;;;;;3.16;100.00;100629.34;5052499;28;20029;-80
2021/12/14 05:21:58;;;;;;;66.32;37.47;;;;;;;3.13;100.00;100624.19;5052630;28;20529;-80
2021/12/14 05:24:25;;;;;;;61.75;37.25;;;;;;;3.19;100.00;100639.63;5053453;28;20033;-80
2021/12/14 05:26:58;;;;;;;60.45;36.50;;;;;;;3.16;100.00;100631.94;5053576;28;20024;-80
2021/12/14 05:29:26;;;;;;;63.80;37.95;;;;;;;3.14;100.00;100630.22;5052223;28;20025;-80
2021/12/14 05:31:52;;;;;;;66.97;39.45;;;;;;;3.13;100.00;100633.66;5052385;28;20039;-80
2021/12/14 05:34:19;;;;;;;62.17;37.15;;;;;;;3.23;100.00;100650.78;5053327;28;20028;-79
2021/12/14 05:36:45;;;;;;;62.80;35.60;;;;;;;3.18;100.00;100643.06;5053487;28;20622;-79
2021/12/14 05:44:46;;;;;;;64.32;39.85;;;;;;;3.16;100.00;100642.22;5052880;28;20103;-79
2021/12/14 05:47:16;;;;;;;68.10;39.38;;;;;;;3.08;100.00;100617.34;5053275;28;20037;-79
2021/12/14 05:49:45;;;;;;;71.87;46.40;;;;;;;3.08;100.00;100612.22;5051871;28;20427;-79
2021/12/14 05:52:18;;;;;;;84.78;51.45;;;;;;;3.11;100.00;100623.31;5052159;28;20027;-79
2021/12/14 05:54:44;;;;;;;89.25;53.38;;;;;;;3.13;100.00;100626.78;5053282;28;20036;-79
2021/12/14 05:57:15;;;;;;;75.32;43.80;;;;;;;3.03;100.00;100607.03;5053141;28;20029;-80
2021/12/14 05:59:41;;;;;;;86.28;53.35;;;;;;;3.00;100.00;100602.75;5053368;28;20393;-80
2021/12/14 06:02:08;;;;;;;89.90;57.03;;;;;;;3.10;100.00;100621.63;5051662;28;20024;-80
2021/12/14 06:04:41;;;;;;;90.15;54.65;;;;;;;2.98;100.00;100601.88;5052648;28;20033;-79
2021/12/14 06:07:07;;;;;;;95.20;59.97;;;;;;;3.13;100.00;100620.78;5051659;28;20399;-79
2021/12/14 06:09:36;;;;;;;97.25;62.70;;;;;;;2.93;100.00;100601.03;5052656;28;20052;-80
2021/12/14 06:12:07;;;;;;;105.20;69.90;;;;;;;2.94;100.00;100607.03;5051571;28;20029;-80
2021/12/14 06:14:40;;;;;;;107.82;71.70;;;;;;;3.05;100.00;100623.34;5029666;28;20034;-80
2021/12/14 06:17:06;;;;;;;102.85;61.78;;;;;;;3.08;100.00;100631.06;5030357;28;20099;-80
2021/12/14 06:19:37;;;;;;;98.90;59.97;;;;;;;2.98;100.00;100608.75;5030084;28;20484;-80
2021/12/14 06:22:10;;;;;;;125.95;64.78;;;;;;;3.12;100.00;100626.75;5030333;28;20174;-80
2021/12/14 06:24:38;;;;;;;116.97;58.22;;;;;;;3.05;100.00;100607.91;5029900;28;20034;-80
2021/12/14 06:27:08;;;;;;;98.65;52.88;;;;;;;3.07;100.00;100613.91;5030040;28;20025;-80
2021/12/14 06:29:41;;;;;;;87.43;50.90;;;;;;;3.06;100.00;100616.47;5029795;28;20038;-80
2021/12/14 06:32:16;;;;;;;79.22;47.95;;;;;;;3.09;100.00;100614.78;5013504;28;20028;-80
2021/12/14 06:34:45;;;;;;;80.82;47.15;;;;;;;3.09;100.00;100632.78;5029852;28;20073;-80
2021/12/14 06:40:09;;;;;;;79.00;47.55;;;;;;;3.02;100.00;100637.94;5030156;28;20048;-79
2021/12/14 06:42:40;;;;;;;79.60;46.72;;;;;;;2.93;100.00;100636.22;5029753;28;20026;-79
2021/12/14 06:45:07;;;;;;;;;;;;;;;2.91;100.00;100636.22;5023418;28;20468;-80
2021/12/14 06:47:33;;;;;;;69.65;43.65;;;;;;;2.90;100.00;100639.63;5051763;28;19913;-80
2021/12/14 06:50:07;;;;;;;80.05;46.30;;;;;;;2.97;100.00;100633.63;5052161;28;20032;-79
2021/12/14 06:52:32;;;;;;;84.75;46.63;;;;;;;2.99;100.00;100623.34;5051554;28;20025;-79
2021/12/14 06:54:57;;;;;;;89.97;50.58;;;;;;;2.86;100.00;100598.47;5052153;28;20032;-79
2021/12/14 06:57:23;;;;;;;83.57;51.33;;;;;;;2.99;100.00;100608.78;5051868;28;20060;-79
2021/12/14 06:59:48;;;;;;;80.70;47.40;;;;;;;3.05;100.00;100615.63;5052085;28;20024;-79
2021/12/14 07:02:14;;;;;;;83.63;46.05;;;;;;;2.97;100.00;100607.91;5050652;28;20419;-80
2021/12/14 07:04:48;;;;;;;97.80;51.55;;;;;;;2.97;100.00;100604.47;5051365;28;20035;-80
2021/12/14 07:07:17;;;;;;;96.38;51.22;;;;;;;2.98;100.00;100606.19;5051690;28;20461;-80
2021/12/14 07:10:03;;;;;;;87.18;48.60;;;;;;;3.02;100.00;100612.19;5051989;28;20133;-79
2021/12/14 07:12:34;;;;;;;76.28;46.58;;;;;;;3.08;100.00;100619.94;5029093;28;20680;-79
2021/12/14 07:15:06;;;;;;;;;;;;;;;3.13;100.00;100616.47;5013257;28;20033;-80
2021/12/14 07:17:42;;;;;;;88.32;50.28;;;;;;;3.05;100.00;100589.03;5012431;28;19917;-78
2021/12/14 07:20:13;;;;;;;101.03;59.50;;;;;;;3.13;100.00;100621.63;5029358;28;20137;-79
2021/12/14 07:22:45;;;;;;;80.68;51.22;;;;;;;3.11;100.00;100607.03;5029133;28;20060;-79
2021/12/14 07:25:12;;;;;;;76.85;47.22;;;;;;;3.17;100.00;100617.34;5029990;28;20539;-79
2021/12/14 07:27:45;;;;;;;84.43;51.70;;;;;;;3.08;100.00;100605.34;5033164;28;20477;-80
2021/12/14 07:30:17;;;;;;;83.90;50.78;;;;;;;3.19;100.00;100623.34;5033436;28;20041;-80
2021/12/14 07:33:16;;;;;;;79.05;48.70;;;;;;;3.18;100.00;100631.91;5033343;28;20036;-80
2021/12/14 07:36:01;;;;;;;81.90;46.42;;;;;;;3.19;100.00;100628.47;5033376;28;20124;-79
2021/12/14 07:38:31;;;;;;;69.43;42.42;;;;;;;3.22;100.00;100631.91;5033152;28;20041;-80
2021/12/14 07:41:02;;;;;;;70.40;43.03;;;;;;;3.22;100.00;100633.63;5033332;28;20099;-79
2021/12/14 07:43:54;;;;;;;70.50;43.03;;;;;;;3.15;100.00;100616.47;5044033;28;20040;-80
2021/12/14 07:46:45;;;;;;;70.28;42.42;;;;;;;3.12;100.00;100607.06;5055340;28;20045;-80
2021/12/14 07:49:19;;;;;;;;;;;;;;;3.24;100.00;100637.94;5054796;28;20111;-80
2021/12/14 07:51:47;;;;;;;82.93;49.33;;;;;;;3.13;100.00;100615.63;5055497;28;19909;-80
2021/12/14 07:54:17;;;;;;;83.40;51.20;;;;;;;3.26;100.00;100632.78;5054166;28;20365;-80
2021/12/14 07:57:00;;;;;;;80.07;46.23;;;;;;;3.28;100.00;100635.34;5054116;28;20102;-80
2021/12/14 07:59:29;;;;;;;78.35;44.25;;;;;;;3.27;100.00;100641.34;5053973;28;20121;-80
2021/12/14 08:02:13;;;;;;;74.27;43.43;;;;;;;3.22;100.00;100637.06;5054198;28;20061;-80
2021/12/14 08:04:41;;;;;;;66.40;41.90;;;;;;;3.18;100.00;100635.34;5055024;28;20028;-78
2021/12/14 08:07:07;;;;;;;67.70;42.40;;;;;;;3.22;100.00;100644.78;5055065;28;20106;-79
2021/12/14 08:09:49;;;;;;;73.85;40.97;;;;;;;3.11;100.00;100630.19;5055083;28;20025;-79
2021/12/14 08:12:35;;;;;;;76.18;42.25;;;;;;;3.25;100.00;100649.09;5053936;28;20073;-79
2021/12/14 08:15:35;;;;;;;71.13;43.15;;;;;;;3.29;100.00;100644.75;5055012;28;20112;-78
2021/12/14 08:18:06;;;;;;;73.93;44.87;;;;;;;3.32;100.00;100653.34;5052551;28;20029;-79
2021/12/14 08:20:34;;;;;;;;;;;;;;;3.36;100.00;100654.22;5052488;28;20275;-79
2021/12/14 08:23:16;;;;;;;72.18;43.53;;;;;;;3.23;100.00;100628.47;5035570;28;19955;-79
2021/12/14 08:25:42;;;;;;;80.72;45.58;;;;;;;3.35;100.00;100653.34;5052338;28;20033;-79
2021/12/14 08:28:07;;;;;;;76.25;45.10;;;;;;;3.28;100.00;100635.34;5052205;28;20036;-78
2021/12/14 08:30:35;;;;;;;74.93;43.60;;;;;;;3.23;100.00;100622.47;5052054;28;20033;-79
2021/12/14 08:33:04;;;;;;;79.80;44.58;;;;;;;3.40;100.00;100651.63;5052310;28;20029;-79
2021/12/14 08:35:32;;;;;;;66.90;41.20;;;;;;;3.42;100.00;100647.34;5070971;28;20041;-79
2021/12/14 08:38:02;;;;;;;81.78;45.47;;;;;;;3.43;100.00;100638.75;5072685;28;20024;-81
2021/12/14 08:40:37;;;;;;;80.57;46.03;;;;;;;3.46;100.00;100633.59;5071766;28;20033;-80
2021/12/14 08:43:13;;;;;;;76.57;44.75;;;;;;;3.46;100.00;100636.19;5062218;28;20032;-80
2021/12/14 08:45:47;;;;;;;80.65;48.10;;;;;;;3.49;100.00;100637.88;5074727;28;20507;-80
2021/12/14 08:48:23;;;;;;;89.28;51.67;;;;;;;3.43;100.00;100636.19;5092275;28;20368;-80
2021/12/14 08:50:57;;;;;;;87.97;50.05;;;;;;;3.34;100.00;100630.19;5091461;28;20040;-81
2021/12/14 08:53:28;;;;;;;81.95;52.95;;;;;;;3.39;100.00;100629.31;5071684;28;20146;-79
2021/12/14 08:55:58;;;;;;;111.25;63.30;;;;;;;3.49;100.00;100635.28;5074036;28;20149;-78
2021/12/14 08:58:25;;;;;;;100.25;60.67;;;;;;;3.40;100.00;100618.16;5074192;28;20024;-80
2021/12/14 09:00:55;;;;;;;103.90;59.60;;;;;;;3.43;100.00;100612.16;5074334;28;20040;-80
2021/12/14 09:03:33;;;;;;;93.43;51.47;;;;;;;3.45;100.00;100608.69;5073897;28;20091;-80
2021/12/14 09:06:12;;;;;;;88.68;52.00;;;;;;;3.48;100.00;100606.13;5072934;28;20131;-80
2021/12/14 09:08:39;;;;;;;98.95;56.45;;;;;;;3.50;100.00;100601.84;5080719;28;20478;-80
2021/12/14 09:11:08;;;;;;;111.05;61.15;;;;;;;3.63;100.00;100615.53;5092949;28;20027;-78
2021/12/14 09:13:33;;;;;;;97.45;55.40;;;;;;;3.58;100.00;100598.34;5093975;28;20070;-79
2021/12/14 09:16:04;;;;;;;104.97;54.20;;;;;;;3.69;100.00;100612.94;5094003;28;20471;-78
2021/12/14 09:18:33;;;;;;;135.88;70.47;;;;;;;3.54;100.00;100576.94;5094029;28;20043;-78
2021/12/14 09:21:15;;;;;;;117.90;59.90;;;;;;;3.65;100.00;100600.91;5094320;28;20488;-78
2021/12/14 09:23:44;;;;;;;114.78;59.47;;;;;;;3.65;100.00;100602.63;5094126;28;20028;-78
2021/12/14 09:26:14;;;;;;;85.18;48.40;;;;;;;3.67;100.00;100606.09;5093815;28;20024;-78
2021/12/14 09:28:40;;;;;;;80.68;45.88;;;;;;;3.63;100.00;100588.91;5093306;28;20028;-79
2021/12/14 09:31:10;;;;;;;83.32;44.75;;;;;;;3.73;100.00;100614.63;5093662;28;20081;-79
2021/12/14 09:33:39;;;;;;;94.32;51.50;;;;;;;3.64;100.00;100596.63;5093403;28;20423;-79
2021/12/14 09:36:12;;;;;;;117.40;59.45;;;;;;;3.66;100.00;100602.63;5093584;28;20620;-78
2021/12/14 09:38:43;;;;;;;120.43;60.90;;;;;;;3.63;100.00;100594.06;5092912;28;20031;-78
2021/12/14 09:41:13;;;;;;;127.43;60.40;;;;;;;3.66;100.00;100576.00;5093147;28;20026;-78
2021/12/14 09:43:40;;;;;;;140.20;70.67;;;;;;;3.76;100.00;100595.75;5078694;28;20114;-78
2021/12/14 09:46:08;;;;;;;120.65;63.33;;;;;;;3.65;100.00;100576.88;5072570;28;20335;-79
2021/12/14 09:48:40;;;;;;;113.70;60.67;;;;;;;3.77;100.00;100601.75;5072280;28;20478;-79
2021/12/14 09:51:13;;;;;;;98.90;52.05;;;;;;;3.74;100.00;100587.13;5073188;28;20035;-78
2021/12/14 09:53:43;;;;;;;89.60;48.42;;;;;;;3.82;100.00;100595.69;5070127;28;20515;-79
2021/12/14 09:56:11;;;;;;;92.57;48.97;;;;;;;3.74;100.00;100588.00;5070657;28;20114;-79
2021/12/14 09:58:41;;;;;;;92.90;52.05;;;;;;;3.80;100.00;100592.28;5070286;28;20037;-79
2021/12/14 10:01:11;;;;;;;92.68;49.45;;;;;;;3.85;100.00;100603.44;5070605;28;20636;-79
2021/12/14 10:03:40;;;;;;;86.70;48.85;;;;;;;3.84;100.00;100606.88;5070335;28;20047;-79
2021/12/14 10:06:11;;;;;;;95.10;48.90;;;;;;;3.83;100.00;100602.56;5053594;28;20025;-79
2021/12/14 10:08:42;;;;;;;98.18;52.67;;;;;;;3.86;100.00;100604.28;5053342;28;20045;-79
2021/12/14 10:11:41;;;;;;;95.32;49.72;;;;;;;3.91;100.00;100613.69;5070344;28;20485;-79
2021/12/14 10:14:08;;;;;;;91.50;50.28;;;;;;;3.91;100.00;100613.69;5070340;28;20488;-79
2021/12/14 10:16:34;;;;;;;83.68;48.80;;;;;;;3.97;100.00;100615.41;5069762;28;20036;-78
2021/12/14 10:19:07;;;;;;;78.57;47.00;;;;;;;3.94;100.00;100605.09;5070138;28;20043;-79
2021/12/14 10:21:52;;;;;;;83.22;48.55;;;;;;;3.90;100.00;100598.25;5053176;28;20028;-79
2021/12/14 10:24:17;;;;;;;95.07;51.80;;;;;;;3.96;100.00;100611.09;5070608;28;20071;-79
2021/12/14 10:26:48;;;;;;;88.35;49.95;;;;;;;3.98;100.00;100617.13;5072511;28;20443;-79
2021/12/14 10:29:14;;;;;;;86.43;49.08;;;;;;;3.94;100.00;100598.22;5072526;28;20519;-79
2021/12/14 10:31:48;;;;;;;92.03;53.00;;;;;;;3.97;100.00;100600.81;5071100;28;20032;-78
2021/12/14 10:34:18;;;;;;;81.80;48.75;;;;;;;4.05;100.00;100611.09;5072452;28;20094;-79
2021/12/14 10:36:51;;;;;;;77.60;49.72;;;;;;;3.93;100.00;100585.38;5071019;28;20028;-79
2021/12/14 10:44:46;;;;;;;87.07;49.95;;;;;;;3.95;100.00;100591.34;5051888;28;20056;-79
2021/12/14 10:47:14;;;;;;;79.82;45.88;;;;;;;4.04;100.00;100596.47;5052219;28;20025;-78
2021/12/14 10:49:41;;;;;;;75.30;44.92;;;;;;;4.04;100.00;100591.31;5051883;28;20033;-79
2021/12/14 10:52:14;;;;;;;81.63;47.70;;;;;;;4.02;100.00;100590.47;5052089;28;20116;-79
2021/12/14 10:54:47;;;;;;;81.95;49.08;;;;;;;3.98;100.00;100578.47;5050737;28;20035;-78
2021/12/14 10:57:21;;;;;;;78.95;47.47;;;;;;;4.04;100.00;100578.41;5052015;28;20036;-78
2021/12/14 10:59:49;;;;;;;80.57;48.05;;;;;;;4.06;100.00;100575.84;5051150;28;20087;-79
2021/12/14 11:02:20;;;;;;;79.45;48.10;;;;;;;4.10;100.00;100590.44;5051799;28;20469;-78
2021/12/14 11:04:55;;;;;;;98.75;55.50;;;;;;;4.00;100.00;100580.19;5050671;28;20127;-80
2021/12/14 11:07:27;;;;;;;94.43;55.60;;;;;;;3.97;100.00;100581.91;5051498;28;20025;-80
2021/12/14 11:10:03;;;;;;;94.63;57.35;;;;;;;4.06;100.00;100591.31;5050456;28;20033;-80
2021/12/14 11:12:34;;;;;;;106.65;61.05;;;;;;;4.04;100.00;100582.72;5051518;28;20025;-80
2021/12/14 11:15:09;;;;;;;102.05;60.28;;;;;;;4.03;100.00;100570.69;5051656;28;20071;-79
2021/12/14 11:20:31;;;;;;;91.03;56.00;;;;;;;4.14;100.00;100584.41;5051479;28;20071;-79
2021/12/14 11:23:03;;;;;;;84.95;52.08;;;;;;;4.14;100.00;100585.25;5051662;28;20025;-79
2021/12/14 11:25:32;;;;;;;81.68;52.33;;;;;;;4.14;100.00;100574.94;5051574;28;20033;-80
2021/12/14 11:28:14;;;;;;;79.43;50.58;;;;;;;4.13;100.00;100574.94;5051703;28;20422;-80
2021/12/14 11:30:48;;;;;;;85.53;51.85;;;;;;;4.14;100.00;100569.78;5050273;28;20033;-80
2021/12/14 11:33:24;;;;;;;81.22;48.00;;;;;;;4.09;100.00;100557.75;5050022;28;20025;-79
2021/12/14 11:35:59;;;;;;;90.63;55.85;;;;;;;4.21;100.00;100579.22;5051785;28;20033;-79
2021/12/14 11:38:48;;;;;;;81.68;53.35;;;;;;;4.22;100.00;100570.59;5051453;28;20025;-80
2021/12/14 11:41:28;;;;;;;77.57;47.13;;;;;;;4.11;100.00;100545.75;5051731;28;20032;-79
2021/12/14 11:44:03;;;;;;;81.83;49.03;;;;;;;4.24;100.00;100570.56;5084481;28;20048;-79
2021/12/14 11:46:32;;;;;;;76.80;45.88;;;;;;;4.21;100.00;100562.84;5091585;28;20135;-79
2021/12/14 11:49:02;;;;;;;68.82;41.75;;;;;;;4.14;100.00;100551.75;5091644;28;20071;-79
2021/12/14 11:51:30;;;;;;;73.70;46.47;;;;;;;4.16;100.00;100547.41;5091332;28;20036;-79
2021/12/14 11:53:57;;;;;;;67.53;43.55;;;;;;;4.22;100.00;100562.88;5090167;28;20102;-79
2021/12/14 11:56:26;;;;;;;106.65;60.22;;;;;;;4.23;100.00;100566.28;5091216;28;20039;-79
2021/12/14 11:58:56;;;;;;;114.35;60.78;;;;;;;4.16;100.00;100562.88;5091868;28;20024;-80
2021/12/14 12:01:30;;;;;;;87.65;51.47;;;;;;;4.13;100.00;100552.59;5091633;28;20483;-80
2021/12/14 12:04:09;;;;;;;74.03;43.78;;;;;;;4.23;100.00;100569.72;5091617;28;20107;-80
2021/12/14 12:09:32;;;;;;;84.00;54.08;;;;;;;4.19;100.00;100546.56;5091415;28;20402;-80
2021/12/14 12:12:11;;;;;;;94.65;63.78;;;;;;;4.22;100.00;100549.97;5092386;28;20036;-80
2021/12/14 12:14:46;;;;;;;86.47;55.92;;;;;;;4.22;100.00;100552.56;5093740;28;20048;-80
2021/12/14 12:17:34;;;;;;;85.95;54.03;;;;;;;4.23;100.00;100545.66;5093812;28;20043;-79
2021/12/14 12:20:13;;;;;;;85.07;52.17;;;;;;;4.23;100.00;100543.09;5095360;28;20020;-79